sensor_id;sensor_type;location;lat;lon;timestamp;P1;durP1;ratioP1;P2;durP2;ratioP2
76107;SDS011;64834;52.516;10.528;2023-05-18T00:02:26;8.13;;;1.83;;
76107;SDS011;64834;52.516;10.528;2023-05-18T00:04:51;9.10;;;1.73;;
76107;SDS011;64834;52.516;10.528;2023-05-18T00:07:17;4.05;;;1.42;;
76107;SDS011;64834;52.516;10.528;2023-05-18T00:09:43;6.15;;;1.50;;
76107;SDS011;64834;52.516;10.528;2023-05-18T00:12:09;4.10;;;1.50;;
76107;SDS011;64834;52.516;10.528;2023-05-18T00:14:35;6.63;;;1.88;;
76107;SDS011;64834;52.516;10.528;2023-05-18T00:17:00;4.72;;;1.50;;
76107;SDS011;64834;52.516;10.528;2023-05-18T00:19:27;4.93;;;1.48;;
76107;SDS011;64834;52.516;10.528;2023-05-18T00:21:54;6.55;;;1.75;;
76107;SDS011;64834;52.516;10.528;2023-05-18T00:24:21;6.30;;;1.65;;
76107;SDS011;64834;52.516;10.528;2023-05-18T00:26:47;4.75;;;1.42;;
76107;SDS011;64834;52.516;10.528;2023-05-18T00:29:14;8.50;;;1.67;;
76107;SDS011;64834;52.516;10.528;2023-05-18T00:31:40;6.63;;;1.70;;
76107;SDS011;64834;52.516;10.528;2023-05-18T00:34:10;6.05;;;1.80;;
76107;SDS011;64834;52.516;10.528;2023-05-18T00:36:37;7.07;;;1.75;;
76107;SDS011;64834;52.516;10.528;2023-05-18T00:39:04;5.22;;;1.52;;
76107;SDS011;64834;52.516;10.528;2023-05-18T00:41:30;7.20;;;1.63;;
76107;SDS011;64834;52.516;10.528;2023-05-18T00:43:57;5.85;;;1.55;;
76107;SDS011;64834;52.516;10.528;2023-05-18T00:46:23;6.55;;;1.70;;
76107;SDS011;64834;52.516;10.528;2023-05-18T00:48:50;4.47;;;1.58;;
76107;SDS011;64834;52.516;10.528;2023-05-18T00:51:17;3.38;;;1.77;;
76107;SDS011;64834;52.516;10.528;2023-05-18T00:53:44;6.50;;;2.30;;
76107;SDS011;64834;52.516;10.528;2023-05-18T00:56:11;5.00;;;1.58;;
76107;SDS011;64834;52.516;10.528;2023-05-18T00:58:37;4.20;;;1.50;;
76107;SDS011;64834;52.516;10.528;2023-05-18T01:01:04;3.95;;;1.55;;
76107;SDS011;64834;52.516;10.528;2023-05-18T01:03:34;3.97;;;1.52;;
76107;SDS011;64834;52.516;10.528;2023-05-18T01:06:03;5.63;;;1.83;;
76107;SDS011;64834;52.516;10.528;2023-05-18T01:08:31;4.60;;;1.85;;
76107;SDS011;64834;52.516;10.528;2023-05-18T01:11:02;4.05;;;1.63;;
76107;SDS011;64834;52.516;10.528;2023-05-18T01:13:40;3.33;;;1.60;;
76107;SDS011;64834;52.516;10.528;2023-05-18T01:16:19;4.70;;;1.50;;
76107;SDS011;64834;52.516;10.528;2023-05-18T01:18:55;4.65;;;1.77;;
76107;SDS011;64834;52.516;10.528;2023-05-18T01:24:34;5.15;;;1.88;;
76107;SDS011;64834;52.516;10.528;2023-05-18T01:27:06;8.68;;;1.85;;
76107;SDS011;64834;52.516;10.528;2023-05-18T01:29:32;4.65;;;1.67;;
76107;SDS011;64834;52.516;10.528;2023-05-18T01:31:58;5.72;;;1.75;;
76107;SDS011;64834;52.516;10.528;2023-05-18T01:34:24;6.40;;;2.25;;
76107;SDS011;64834;52.516;10.528;2023-05-18T01:36:49;6.22;;;2.08;;
76107;SDS011;64834;52.516;10.528;2023-05-18T01:39:14;8.00;;;1.95;;
76107;SDS011;64834;52.516;10.528;2023-05-18T01:41:42;5.43;;;2.20;;
76107;SDS011;64834;52.516;10.528;2023-05-18T01:44:18;5.00;;;2.50;;
76107;SDS011;64834;52.516;10.528;2023-05-18T01:47:03;8.77;;;2.20;;
76107;SDS011;64834;52.516;10.528;2023-05-18T01:49:37;8.63;;;2.60;;
76107;SDS011;64834;52.516;10.528;2023-05-18T01:52:23;16.33;;;3.25;;
76107;SDS011;64834;52.516;10.528;2023-05-18T01:54:55;4.80;;;2.22;;
76107;SDS011;64834;52.516;10.528;2023-05-18T01:57:24;6.60;;;2.20;;
76107;SDS011;64834;52.516;10.528;2023-05-18T01:59:52;10.30;;;2.60;;
76107;SDS011;64834;52.516;10.528;2023-05-18T02:02:18;4.65;;;1.80;;
76107;SDS011;64834;52.516;10.528;2023-05-18T02:04:43;5.25;;;2.00;;
76107;SDS011;64834;52.516;10.528;2023-05-18T02:07:09;5.72;;;2.17;;
76107;SDS011;64834;52.516;10.528;2023-05-18T02:09:34;5.55;;;1.83;;
76107;SDS011;64834;52.516;10.528;2023-05-18T02:11:59;5.28;;;2.03;;
76107;SDS011;64834;52.516;10.528;2023-05-18T02:14:25;6.20;;;2.13;;
76107;SDS011;64834;52.516;10.528;2023-05-18T02:16:50;7.32;;;2.47;;
76107;SDS011;64834;52.516;10.528;2023-05-18T02:19:18;8.27;;;1.98;;
76107;SDS011;64834;52.516;10.528;2023-05-18T02:21:44;5.90;;;2.30;;
76107;SDS011;64834;52.516;10.528;2023-05-18T02:24:09;9.02;;;2.47;;
76107;SDS011;64834;52.516;10.528;2023-05-18T02:26:36;6.97;;;2.00;;
76107;SDS011;64834;52.516;10.528;2023-05-18T02:29:02;6.63;;;2.35;;
76107;SDS011;64834;52.516;10.528;2023-05-18T02:31:28;6.35;;;2.15;;
76107;SDS011;64834;52.516;10.528;2023-05-18T02:33:55;6.57;;;2.17;;
76107;SDS011;64834;52.516;10.528;2023-05-18T02:36:21;7.78;;;2.42;;
76107;SDS011;64834;52.516;10.528;2023-05-18T02:38:46;7.43;;;2.13;;
76107;SDS011;64834;52.516;10.528;2023-05-18T02:41:12;5.70;;;2.17;;
76107;SDS011;64834;52.516;10.528;2023-05-18T02:43:38;5.50;;;1.80;;
76107;SDS011;64834;52.516;10.528;2023-05-18T02:46:03;9.65;;;1.85;;
76107;SDS011;64834;52.516;10.528;2023-05-18T02:48:29;3.92;;;1.95;;
76107;SDS011;64834;52.516;10.528;2023-05-18T02:50:54;4.20;;;2.05;;
76107;SDS011;64834;52.516;10.528;2023-05-18T02:53:20;6.55;;;2.70;;
76107;SDS011;64834;52.516;10.528;2023-05-18T02:55:46;5.57;;;2.17;;
76107;SDS011;64834;52.516;10.528;2023-05-18T02:58:12;7.30;;;2.65;;
76107;SDS011;64834;52.516;10.528;2023-05-18T03:00:38;5.00;;;2.15;;
76107;SDS011;64834;52.516;10.528;2023-05-18T03:03:04;4.90;;;2.30;;
76107;SDS011;64834;52.516;10.528;2023-05-18T03:05:29;4.57;;;2.25;;
76107;SDS011;64834;52.516;10.528;2023-05-18T03:07:54;5.22;;;2.42;;
76107;SDS011;64834;52.516;10.528;2023-05-18T03:10:20;6.65;;;2.45;;
76107;SDS011;64834;52.516;10.528;2023-05-18T03:12:46;7.63;;;2.47;;
76107;SDS011;64834;52.516;10.528;2023-05-18T03:15:12;7.30;;;2.35;;
76107;SDS011;64834;52.516;10.528;2023-05-18T03:17:43;8.85;;;2.85;;
76107;SDS011;64834;52.516;10.528;2023-05-18T03:20:09;4.75;;;2.63;;
76107;SDS011;64834;52.516;10.528;2023-05-18T03:22:45;7.35;;;2.47;;
76107;SDS011;64834;52.516;10.528;2023-05-18T03:25:11;7.57;;;2.25;;
76107;SDS011;64834;52.516;10.528;2023-05-18T03:27:36;6.95;;;2.47;;
76107;SDS011;64834;52.516;10.528;2023-05-18T03:30:01;8.30;;;2.53;;
76107;SDS011;64834;52.516;10.528;2023-05-18T03:32:28;7.07;;;2.33;;
76107;SDS011;64834;52.516;10.528;2023-05-18T03:34:55;6.15;;;2.38;;
76107;SDS011;64834;52.516;10.528;2023-05-18T03:37:21;6.82;;;2.75;;
76107;SDS011;64834;52.516;10.528;2023-05-18T03:39:46;3.92;;;1.98;;
76107;SDS011;64834;52.516;10.528;2023-05-18T03:42:11;5.47;;;2.60;;
76107;SDS011;64834;52.516;10.528;2023-05-18T03:44:37;4.78;;;2.20;;
76107;SDS011;64834;52.516;10.528;2023-05-18T03:47:02;4.55;;;2.50;;
76107;SDS011;64834;52.516;10.528;2023-05-18T03:49:27;6.00;;;2.90;;
76107;SDS011;64834;52.516;10.528;2023-05-18T03:51:56;4.57;;;2.28;;
76107;SDS011;64834;52.516;10.528;2023-05-18T03:54:21;5.25;;;2.33;;
76107;SDS011;64834;52.516;10.528;2023-05-18T03:56:47;8.10;;;2.50;;
76107;SDS011;64834;52.516;10.528;2023-05-18T03:59:12;4.10;;;2.33;;
76107;SDS011;64834;52.516;10.528;2023-05-18T04:01:38;6.30;;;2.45;;
76107;SDS011;64834;52.516;10.528;2023-05-18T04:04:06;5.82;;;2.47;;
76107;SDS011;64834;52.516;10.528;2023-05-18T04:06:32;6.38;;;2.78;;
76107;SDS011;64834;52.516;10.528;2023-05-18T04:08:59;5.13;;;2.50;;
76107;SDS011;64834;52.516;10.528;2023-05-18T04:11:28;9.18;;;2.60;;
76107;SDS011;64834;52.516;10.528;2023-05-18T04:13:56;8.55;;;2.80;;
76107;SDS011;64834;52.516;10.528;2023-05-18T04:16:25;5.03;;;2.33;;
76107;SDS011;64834;52.516;10.528;2023-05-18T04:18:51;6.43;;;2.50;;
76107;SDS011;64834;52.516;10.528;2023-05-18T04:21:17;7.43;;;2.75;;
76107;SDS011;64834;52.516;10.528;2023-05-18T04:23:43;7.10;;;2.42;;
76107;SDS011;64834;52.516;10.528;2023-05-18T04:26:08;7.50;;;2.70;;
76107;SDS011;64834;52.516;10.528;2023-05-18T04:28:35;9.65;;;3.05;;
76107;SDS011;64834;52.516;10.528;2023-05-18T04:31:01;8.20;;;2.88;;
76107;SDS011;64834;52.516;10.528;2023-05-18T04:33:29;6.30;;;2.75;;
76107;SDS011;64834;52.516;10.528;2023-05-18T04:35:54;5.15;;;2.45;;
76107;SDS011;64834;52.516;10.528;2023-05-18T04:38:20;5.53;;;2.78;;
76107;SDS011;64834;52.516;10.528;2023-05-18T04:40:49;5.82;;;2.85;;
76107;SDS011;64834;52.516;10.528;2023-05-18T04:43:15;5.88;;;3.47;;
76107;SDS011;64834;52.516;10.528;2023-05-18T04:45:42;8.82;;;2.80;;
76107;SDS011;64834;52.516;10.528;2023-05-18T04:48:10;6.63;;;2.92;;
76107;SDS011;64834;52.516;10.528;2023-05-18T04:50:36;5.30;;;2.80;;
76107;SDS011;64834;52.516;10.528;2023-05-18T04:53:02;6.25;;;2.72;;
76107;SDS011;64834;52.516;10.528;2023-05-18T04:55:30;5.75;;;3.10;;
76107;SDS011;64834;52.516;10.528;2023-05-18T04:57:57;8.18;;;2.53;;
76107;SDS011;64834;52.516;10.528;2023-05-18T05:00:24;6.38;;;3.05;;
76107;SDS011;64834;52.516;10.528;2023-05-18T05:02:52;5.38;;;2.75;;
76107;SDS011;64834;52.516;10.528;2023-05-18T05:05:17;5.38;;;2.70;;
76107;SDS011;64834;52.516;10.528;2023-05-18T05:07:43;7.65;;;3.10;;
76107;SDS011;64834;52.516;10.528;2023-05-18T05:10:08;7.30;;;3.00;;
76107;SDS011;64834;52.516;10.528;2023-05-18T05:12:35;5.25;;;2.40;;
76107;SDS011;64834;52.516;10.528;2023-05-18T05:15:01;6.93;;;2.88;;
76107;SDS011;64834;52.516;10.528;2023-05-18T05:17:26;7.50;;;3.55;;
76107;SDS011;64834;52.516;10.528;2023-05-18T05:19:51;6.18;;;3.47;;
76107;SDS011;64834;52.516;10.528;2023-05-18T05:22:17;9.50;;;3.83;;
76107;SDS011;64834;52.516;10.528;2023-05-18T05:24:43;8.57;;;3.50;;
76107;SDS011;64834;52.516;10.528;2023-05-18T05:27:09;6.32;;;3.13;;
76107;SDS011;64834;52.516;10.528;2023-05-18T05:29:34;7.40;;;3.20;;
76107;SDS011;64834;52.516;10.528;2023-05-18T05:31:59;6.20;;;2.90;;
76107;SDS011;64834;52.516;10.528;2023-05-18T05:34:25;8.35;;;3.28;;
76107;SDS011;64834;52.516;10.528;2023-05-18T05:36:50;8.05;;;3.25;;
76107;SDS011;64834;52.516;10.528;2023-05-18T05:39:15;5.90;;;2.95;;
76107;SDS011;64834;52.516;10.528;2023-05-18T05:41:41;6.22;;;2.47;;
76107;SDS011;64834;52.516;10.528;2023-05-18T05:44:06;8.07;;;3.45;;
76107;SDS011;64834;52.516;10.528;2023-05-18T05:46:31;6.78;;;2.75;;
76107;SDS011;64834;52.516;10.528;2023-05-18T05:48:57;4.05;;;2.75;;
76107;SDS011;64834;52.516;10.528;2023-05-18T05:51:22;8.00;;;2.90;;
76107;SDS011;64834;52.516;10.528;2023-05-18T05:53:47;8.73;;;2.83;;
76107;SDS011;64834;52.516;10.528;2023-05-18T05:56:13;8.48;;;3.40;;
76107;SDS011;64834;52.516;10.528;2023-05-18T05:58:38;6.70;;;2.95;;
76107;SDS011;64834;52.516;10.528;2023-05-18T06:01:06;9.05;;;3.20;;
76107;SDS011;64834;52.516;10.528;2023-05-18T06:03:32;5.32;;;2.63;;
76107;SDS011;64834;52.516;10.528;2023-05-18T06:05:58;8.02;;;2.75;;
76107;SDS011;64834;52.516;10.528;2023-05-18T06:08:23;10.18;;;3.15;;
76107;SDS011;64834;52.516;10.528;2023-05-18T06:10:48;8.25;;;2.95;;
76107;SDS011;64834;52.516;10.528;2023-05-18T06:13:14;9.57;;;3.35;;
76107;SDS011;64834;52.516;10.528;2023-05-18T06:15:40;10.13;;;3.30;;
76107;SDS011;64834;52.516;10.528;2023-05-18T06:18:05;9.45;;;3.10;;
76107;SDS011;64834;52.516;10.528;2023-05-18T06:20:30;9.35;;;2.85;;
76107;SDS011;64834;52.516;10.528;2023-05-18T06:22:56;6.07;;;2.67;;
76107;SDS011;64834;52.516;10.528;2023-05-18T06:25:21;6.90;;;2.60;;
76107;SDS011;64834;52.516;10.528;2023-05-18T06:27:47;8.55;;;2.85;;
76107;SDS011;64834;52.516;10.528;2023-05-18T06:30:12;6.13;;;2.33;;
76107;SDS011;64834;52.516;10.528;2023-05-18T06:32:37;5.65;;;2.75;;
76107;SDS011;64834;52.516;10.528;2023-05-18T06:35:03;5.95;;;2.05;;
76107;SDS011;64834;52.516;10.528;2023-05-18T06:37:30;11.07;;;2.97;;
76107;SDS011;64834;52.516;10.528;2023-05-18T06:39:55;5.20;;;2.55;;
76107;SDS011;64834;52.516;10.528;2023-05-18T06:42:21;5.72;;;2.20;;
76107;SDS011;64834;52.516;10.528;2023-05-18T06:44:47;7.43;;;3.13;;
76107;SDS011;64834;52.516;10.528;2023-05-18T06:47:14;7.43;;;1.92;;
76107;SDS011;64834;52.516;10.528;2023-05-18T06:49:39;6.57;;;1.65;;
76107;SDS011;64834;52.516;10.528;2023-05-18T06:52:05;4.63;;;2.00;;
76107;SDS011;64834;52.516;10.528;2023-05-18T06:54:31;7.20;;;1.70;;
76107;SDS011;64834;52.516;10.528;2023-05-18T06:56:57;5.50;;;1.85;;
76107;SDS011;64834;52.516;10.528;2023-05-18T06:59:22;5.55;;;1.40;;
76107;SDS011;64834;52.516;10.528;2023-05-18T07:01:47;7.00;;;2.13;;
76107;SDS011;64834;52.516;10.528;2023-05-18T07:04:13;6.10;;;1.40;;
76107;SDS011;64834;52.516;10.528;2023-05-18T07:06:39;6.20;;;2.35;;
76107;SDS011;64834;52.516;10.528;2023-05-18T07:09:05;5.93;;;2.67;;
76107;SDS011;64834;52.516;10.528;2023-05-18T07:11:31;5.70;;;1.83;;
76107;SDS011;64834;52.516;10.528;2023-05-18T07:13:57;5.90;;;1.73;;
76107;SDS011;64834;52.516;10.528;2023-05-18T07:16:22;12.27;;;2.30;;
76107;SDS011;64834;52.516;10.528;2023-05-18T07:18:47;6.40;;;1.80;;
76107;SDS011;64834;52.516;10.528;2023-05-18T07:21:13;6.75;;;2.00;;
76107;SDS011;64834;52.516;10.528;2023-05-18T07:23:38;4.68;;;1.65;;
76107;SDS011;64834;52.516;10.528;2023-05-18T07:26:03;6.55;;;1.70;;
76107;SDS011;64834;52.516;10.528;2023-05-18T07:28:32;7.80;;;1.58;;
76107;SDS011;64834;52.516;10.528;2023-05-18T07:30:57;5.95;;;1.85;;
76107;SDS011;64834;52.516;10.528;2023-05-18T07:33:22;4.22;;;1.60;;
76107;SDS011;64834;52.516;10.528;2023-05-18T07:35:47;6.32;;;1.48;;
76107;SDS011;64834;52.516;10.528;2023-05-18T07:38:13;5.18;;;1.60;;
76107;SDS011;64834;52.516;10.528;2023-05-18T07:40:38;3.85;;;1.20;;
76107;SDS011;64834;52.516;10.528;2023-05-18T07:43:03;4.43;;;1.58;;
76107;SDS011;64834;52.516;10.528;2023-05-18T07:45:29;3.60;;;1.25;;
76107;SDS011;64834;52.516;10.528;2023-05-18T07:47:54;3.90;;;1.45;;
76107;SDS011;64834;52.516;10.528;2023-05-18T07:50:20;4.25;;;1.58;;
76107;SDS011;64834;52.516;10.528;2023-05-18T07:52:45;7.85;;;1.55;;
76107;SDS011;64834;52.516;10.528;2023-05-18T07:55:10;5.05;;;1.35;;
76107;SDS011;64834;52.516;10.528;2023-05-18T07:57:36;7.25;;;1.35;;
76107;SDS011;64834;52.516;10.528;2023-05-18T08:00:02;8.93;;;1.50;;
76107;SDS011;64834;52.516;10.528;2023-05-18T08:02:28;3.80;;;1.48;;
76107;SDS011;64834;52.516;10.528;2023-05-18T08:04:54;6.25;;;1.30;;
76107;SDS011;64834;52.516;10.528;2023-05-18T08:07:19;7.25;;;1.30;;
76107;SDS011;64834;52.516;10.528;2023-05-18T08:09:45;5.25;;;1.73;;
76107;SDS011;64834;52.516;10.528;2023-05-18T08:12:10;4.82;;;1.20;;
76107;SDS011;64834;52.516;10.528;2023-05-18T08:14:35;4.40;;;1.23;;
76107;SDS011;64834;52.516;10.528;2023-05-18T08:17:02;5.03;;;1.60;;
76107;SDS011;64834;52.516;10.528;2023-05-18T08:19:28;5.85;;;1.42;;
76107;SDS011;64834;52.516;10.528;2023-05-18T08:21:53;5.20;;;1.30;;
76107;SDS011;64834;52.516;10.528;2023-05-18T08:24:19;8.82;;;1.67;;
76107;SDS011;64834;52.516;10.528;2023-05-18T08:26:44;6.03;;;1.58;;
76107;SDS011;64834;52.516;10.528;2023-05-18T08:29:09;3.55;;;1.20;;
76107;SDS011;64834;52.516;10.528;2023-05-18T08:31:35;7.05;;;1.77;;
76107;SDS011;64834;52.516;10.528;2023-05-18T08:34:04;5.20;;;1.55;;
76107;SDS011;64834;52.516;10.528;2023-05-18T08:36:30;5.35;;;1.50;;
76107;SDS011;64834;52.516;10.528;2023-05-18T08:38:57;5.03;;;1.70;;
76107;SDS011;64834;52.516;10.528;2023-05-18T08:41:25;5.05;;;1.23;;
76107;SDS011;64834;52.516;10.528;2023-05-18T08:44:00;4.70;;;1.50;;
76107;SDS011;64834;52.516;10.528;2023-05-18T08:46:37;7.28;;;1.70;;
76107;SDS011;64834;52.516;10.528;2023-05-18T08:49:06;6.03;;;1.73;;
76107;SDS011;64834;52.516;10.528;2023-05-18T08:51:34;5.85;;;1.60;;
76107;SDS011;64834;52.516;10.528;2023-05-18T08:54:01;6.80;;;1.65;;
76107;SDS011;64834;52.516;10.528;2023-05-18T08:56:28;5.13;;;1.92;;
76107;SDS011;64834;52.516;10.528;2023-05-18T08:58:55;7.20;;;1.73;;
76107;SDS011;64834;52.516;10.528;2023-05-18T09:01:21;5.10;;;1.50;;
76107;SDS011;64834;52.516;10.528;2023-05-18T09:03:52;6.90;;;1.88;;
76107;SDS011;64834;52.516;10.528;2023-05-18T09:06:17;5.63;;;1.50;;
76107;SDS011;64834;52.516;10.528;2023-05-18T09:08:44;7.55;;;1.63;;
76107;SDS011;64834;52.516;10.528;2023-05-18T09:11:10;6.30;;;1.92;;
76107;SDS011;64834;52.516;10.528;2023-05-18T09:13:37;6.35;;;1.50;;
76107;SDS011;64834;52.516;10.528;2023-05-18T09:16:02;9.02;;;2.10;;
76107;SDS011;64834;52.516;10.528;2023-05-18T09:18:28;5.68;;;1.35;;
76107;SDS011;64834;52.516;10.528;2023-05-18T09:20:53;4.00;;;1.35;;
76107;SDS011;64834;52.516;10.528;2023-05-18T09:23:18;5.95;;;1.42;;
76107;SDS011;64834;52.516;10.528;2023-05-18T09:25:44;4.45;;;1.73;;
76107;SDS011;64834;52.516;10.528;2023-05-18T09:28:21;6.82;;;1.70;;
76107;SDS011;64834;52.516;10.528;2023-05-18T09:30:50;8.25;;;1.60;;
76107;SDS011;64834;52.516;10.528;2023-05-18T09:33:17;6.65;;;1.58;;
76107;SDS011;64834;52.516;10.528;2023-05-18T09:35:45;5.35;;;1.45;;
76107;SDS011;64834;52.516;10.528;2023-05-18T09:38:12;6.05;;;1.50;;
76107;SDS011;64834;52.516;10.528;2023-05-18T09:40:44;5.90;;;1.23;;
76107;SDS011;64834;52.516;10.528;2023-05-18T09:43:10;4.07;;;1.70;;
76107;SDS011;64834;52.516;10.528;2023-05-18T09:45:40;5.95;;;1.52;;
76107;SDS011;64834;52.516;10.528;2023-05-18T09:48:07;5.05;;;1.40;;
76107;SDS011;64834;52.516;10.528;2023-05-18T09:50:33;6.75;;;1.58;;
76107;SDS011;64834;52.516;10.528;2023-05-18T09:53:01;3.88;;;1.27;;
76107;SDS011;64834;52.516;10.528;2023-05-18T09:55:29;4.10;;;1.25;;
76107;SDS011;64834;52.516;10.528;2023-05-18T09:57:55;4.43;;;1.52;;
76107;SDS011;64834;52.516;10.528;2023-05-18T10:00:20;6.38;;;2.35;;
76107;SDS011;64834;52.516;10.528;2023-05-18T10:02:47;4.32;;;1.23;;
76107;SDS011;64834;52.516;10.528;2023-05-18T10:07:44;5.85;;;1.85;;
76107;SDS011;64834;52.516;10.528;2023-05-18T10:10:10;5.60;;;1.35;;
76107;SDS011;64834;52.516;10.528;2023-05-18T10:12:37;5.90;;;1.60;;
76107;SDS011;64834;52.516;10.528;2023-05-18T10:15:07;5.30;;;1.60;;
76107;SDS011;64834;52.516;10.528;2023-05-18T10:17:33;7.82;;;1.17;;
76107;SDS011;64834;52.516;10.528;2023-05-18T10:20:01;4.97;;;1.70;;
76107;SDS011;64834;52.516;10.528;2023-05-18T10:22:29;4.47;;;1.42;;
76107;SDS011;64834;52.516;10.528;2023-05-18T10:24:58;5.97;;;1.63;;
76107;SDS011;64834;52.516;10.528;2023-05-18T10:27:26;5.85;;;1.55;;
76107;SDS011;64834;52.516;10.528;2023-05-18T10:29:52;5.72;;;1.30;;
76107;SDS011;64834;52.516;10.528;2023-05-18T10:32:21;7.60;;;1.38;;
76107;SDS011;64834;52.516;10.528;2023-05-18T10:34:48;3.33;;;1.08;;
76107;SDS011;64834;52.516;10.528;2023-05-18T10:39:41;5.70;;;1.02;;
76107;SDS011;64834;52.516;10.528;2023-05-18T10:42:09;6.40;;;1.95;;
76107;SDS011;64834;52.516;10.528;2023-05-18T10:44:35;4.03;;;1.42;;
76107;SDS011;64834;52.516;10.528;2023-05-18T10:47:03;4.88;;;1.40;;
76107;SDS011;64834;52.516;10.528;2023-05-18T10:49:29;3.63;;;1.50;;
76107;SDS011;64834;52.516;10.528;2023-05-18T10:51:56;8.50;;;1.60;;
76107;SDS011;64834;52.516;10.528;2023-05-18T10:54:21;5.72;;;1.20;;
76107;SDS011;64834;52.516;10.528;2023-05-18T10:56:49;6.95;;;1.52;;
76107;SDS011;64834;52.516;10.528;2023-05-18T10:59:17;4.90;;;1.38;;
76107;SDS011;64834;52.516;10.528;2023-05-18T11:01:44;4.60;;;1.30;;
76107;SDS011;64834;52.516;10.528;2023-05-18T11:04:11;6.65;;;2.10;;
76107;SDS011;64834;52.516;10.528;2023-05-18T11:06:37;4.45;;;1.42;;
76107;SDS011;64834;52.516;10.528;2023-05-18T11:09:03;4.30;;;1.20;;
76107;SDS011;64834;52.516;10.528;2023-05-18T11:11:28;8.30;;;1.50;;
76107;SDS011;64834;52.516;10.528;2023-05-18T11:13:58;3.88;;;1.30;;
76107;SDS011;64834;52.516;10.528;2023-05-18T11:16:33;6.78;;;1.63;;
76107;SDS011;64834;52.516;10.528;2023-05-18T11:19:05;2.72;;;1.20;;
76107;SDS011;64834;52.516;10.528;2023-05-18T11:26:50;5.15;;;1.33;;
76107;SDS011;64834;52.516;10.528;2023-05-18T11:29:36;4.43;;;1.40;;
76107;SDS011;64834;52.516;10.528;2023-05-18T11:32:21;3.17;;;1.33;;
76107;SDS011;64834;52.516;10.528;2023-05-18T11:34:50;5.28;;;1.30;;
76107;SDS011;64834;52.516;10.528;2023-05-18T11:37:46;5.60;;;1.70;;
76107;SDS011;64834;52.516;10.528;2023-05-18T11:40:02;4.70;;;1.17;;
76107;SDS011;64834;52.516;10.528;2023-05-18T11:42:32;5.35;;;1.13;;
76107;SDS011;64834;52.516;10.528;2023-05-18T11:45:04;4.65;;;1.08;;
76107;SDS011;64834;52.516;10.528;2023-05-18T11:47:30;5.03;;;1.23;;
76107;SDS011;64834;52.516;10.528;2023-05-18T11:49:56;3.55;;;1.20;;
76107;SDS011;64834;52.516;10.528;2023-05-18T11:52:22;4.35;;;1.30;;
76107;SDS011;64834;52.516;10.528;2023-05-18T11:54:52;7.88;;;1.48;;
76107;SDS011;64834;52.516;10.528;2023-05-18T11:59:59;3.78;;;1.25;;
76107;SDS011;64834;52.516;10.528;2023-05-18T12:02:30;4.68;;;1.48;;
76107;SDS011;64834;52.516;10.528;2023-05-18T12:04:56;4.25;;;1.33;;
76107;SDS011;64834;52.516;10.528;2023-05-18T12:07:24;4.57;;;1.23;;
76107;SDS011;64834;52.516;10.528;2023-05-18T12:09:52;3.10;;;1.25;;
76107;SDS011;64834;52.516;10.528;2023-05-18T12:12:21;3.05;;;1.40;;
76107;SDS011;64834;52.516;10.528;2023-05-18T12:14:52;4.50;;;1.45;;
76107;SDS011;64834;52.516;10.528;2023-05-18T12:17:37;4.45;;;1.40;;
76107;SDS011;64834;52.516;10.528;2023-05-18T12:20:04;4.35;;;1.10;;
76107;SDS011;64834;52.516;10.528;2023-05-18T12:22:30;3.78;;;1.02;;
76107;SDS011;64834;52.516;10.528;2023-05-18T12:24:55;5.32;;;1.20;;
76107;SDS011;64834;52.516;10.528;2023-05-18T12:27:20;6.30;;;1.08;;
76107;SDS011;64834;52.516;10.528;2023-05-18T12:29:46;3.67;;;1.23;;
76107;SDS011;64834;52.516;10.528;2023-05-18T12:32:12;4.03;;;1.60;;
76107;SDS011;64834;52.516;10.528;2023-05-18T12:34:38;4.60;;;1.10;;
76107;SDS011;64834;52.516;10.528;2023-05-18T12:37:06;4.93;;;1.25;;
76107;SDS011;64834;52.516;10.528;2023-05-18T12:39:32;5.32;;;1.23;;
76107;SDS011;64834;52.516;10.528;2023-05-18T12:42:13;5.07;;;1.30;;
76107;SDS011;64834;52.516;10.528;2023-05-18T12:44:39;4.43;;;1.33;;
76107;SDS011;64834;52.516;10.528;2023-05-18T12:47:06;4.78;;;1.25;;
76107;SDS011;64834;52.516;10.528;2023-05-18T12:49:35;5.40;;;1.48;;
76107;SDS011;64834;52.516;10.528;2023-05-18T12:52:06;4.38;;;1.20;;
76107;SDS011;64834;52.516;10.528;2023-05-18T12:54:49;3.33;;;1.08;;
76107;SDS011;64834;52.516;10.528;2023-05-18T12:57:19;5.82;;;1.50;;
76107;SDS011;64834;52.516;10.528;2023-05-18T12:59:49;5.60;;;1.20;;
76107;SDS011;64834;52.516;10.528;2023-05-18T13:05:01;3.30;;;1.00;;
76107;SDS011;64834;52.516;10.528;2023-05-18T13:07:26;5.10;;;0.93;;
76107;SDS011;64834;52.516;10.528;2023-05-18T13:09:52;4.43;;;1.35;;
76107;SDS011;64834;52.516;10.528;2023-05-18T13:12:34;3.65;;;1.10;;
76107;SDS011;64834;52.516;10.528;2023-05-18T13:15:09;4.68;;;1.38;;
76107;SDS011;64834;52.516;10.528;2023-05-18T13:17:46;3.53;;;1.30;;
76107;SDS011;64834;52.516;10.528;2023-05-18T13:20:13;4.32;;;1.20;;
76107;SDS011;64834;52.516;10.528;2023-05-18T13:22:39;4.63;;;1.23;;
76107;SDS011;64834;52.516;10.528;2023-05-18T13:25:05;4.57;;;1.25;;
76107;SDS011;64834;52.516;10.528;2023-05-18T13:27:31;3.50;;;1.10;;
76107;SDS011;64834;52.516;10.528;2023-05-18T13:29:56;4.90;;;1.30;;
76107;SDS011;64834;52.516;10.528;2023-05-18T13:32:23;4.45;;;1.20;;
76107;SDS011;64834;52.516;10.528;2023-05-18T13:34:49;7.00;;;1.55;;
76107;SDS011;64834;52.516;10.528;2023-05-18T13:37:16;5.57;;;1.85;;
76107;SDS011;64834;52.516;10.528;2023-05-18T13:39:42;5.50;;;1.45;;
76107;SDS011;64834;52.516;10.528;2023-05-18T13:42:08;4.43;;;1.25;;
76107;SDS011;64834;52.516;10.528;2023-05-18T13:44:33;3.60;;;1.33;;
76107;SDS011;64834;52.516;10.528;2023-05-18T13:46:58;8.00;;;1.60;;
76107;SDS011;64834;52.516;10.528;2023-05-18T13:49:24;3.75;;;1.10;;
76107;SDS011;64834;52.516;10.528;2023-05-18T13:51:50;4.97;;;1.50;;
76107;SDS011;64834;52.516;10.528;2023-05-18T13:54:15;4.30;;;1.00;;
76107;SDS011;64834;52.516;10.528;2023-05-18T13:56:40;5.22;;;1.40;;
76107;SDS011;64834;52.516;10.528;2023-05-18T13:59:06;7.20;;;1.20;;
76107;SDS011;64834;52.516;10.528;2023-05-18T14:01:31;5.85;;;1.60;;
76107;SDS011;64834;52.516;10.528;2023-05-18T14:03:58;6.70;;;1.50;;
76107;SDS011;64834;52.516;10.528;2023-05-18T14:06:24;3.80;;;1.30;;
76107;SDS011;64834;52.516;10.528;2023-05-18T14:08:51;6.03;;;1.60;;
76107;SDS011;64834;52.516;10.528;2023-05-18T14:11:17;4.35;;;1.25;;
76107;SDS011;64834;52.516;10.528;2023-05-18T14:13:42;6.85;;;1.45;;
76107;SDS011;64834;52.516;10.528;2023-05-18T14:16:10;6.20;;;1.45;;
76107;SDS011;64834;52.516;10.528;2023-05-18T14:18:36;3.92;;;1.42;;
76107;SDS011;64834;52.516;10.528;2023-05-18T14:21:01;2.88;;;1.42;;
76107;SDS011;64834;52.516;10.528;2023-05-18T14:23:28;5.60;;;1.40;;
76107;SDS011;64834;52.516;10.528;2023-05-18T14:25:56;7.40;;;1.85;;
76107;SDS011;64834;52.516;10.528;2023-05-18T14:28:21;6.25;;;1.52;;
76107;SDS011;64834;52.516;10.528;2023-05-18T14:30:46;6.22;;;1.23;;
76107;SDS011;64834;52.516;10.528;2023-05-18T14:33:12;4.45;;;1.45;;
76107;SDS011;64834;52.516;10.528;2023-05-18T14:35:37;5.57;;;1.40;;
76107;SDS011;64834;52.516;10.528;2023-05-18T14:38:04;4.30;;;1.27;;
76107;SDS011;64834;52.516;10.528;2023-05-18T14:40:29;5.43;;;1.27;;
76107;SDS011;64834;52.516;10.528;2023-05-18T14:42:54;4.47;;;1.95;;
76107;SDS011;64834;52.516;10.528;2023-05-18T14:45:20;7.20;;;1.48;;
76107;SDS011;64834;52.516;10.528;2023-05-18T14:47:45;6.93;;;1.08;;
76107;SDS011;64834;52.516;10.528;2023-05-18T14:50:11;4.13;;;1.23;;
76107;SDS011;64834;52.516;10.528;2023-05-18T14:52:36;6.78;;;1.55;;